createdAt,value
2022-07-26T00:03:05.295Z,69.89
2022-07-26T00:08:14.221Z,69.95
2022-07-26T00:13:20.172Z,70.01
2022-07-26T00:18:23.298Z,70.22
2022-07-26T00:23:26.142Z,70.20
2022-07-26T00:28:30.125Z,70.50
2022-07-26T00:33:32.761Z,70.54
2022-07-26T00:38:35.678Z,70.43
2022-07-26T00:43:54.655Z,70.93
2022-07-26T00:48:57.569Z,70.99
2022-07-26T00:54:00.415Z,71.03
2022-07-26T00:59:04.731Z,71.30
2022-07-26T01:04:08.006Z,71.48
2022-07-26T01:09:11.878Z,71.66
2022-07-26T01:14:16.434Z,71.80
2022-07-26T01:19:20.184Z,71.68
2022-07-26T01:24:24.441Z,71.88
2022-07-26T01:29:34.530Z,71.81
2022-07-26T01:34:38.100Z,71.92
2022-07-26T01:39:43.803Z,71.97
2022-07-26T01:44:46.456Z,71.74
2022-07-26T01:49:49.274Z,71.79
2022-07-26T01:54:53.421Z,71.78
2022-07-26T01:59:56.449Z,71.90
2022-07-26T02:05:02.453Z,71.76
2022-07-26T02:10:07.711Z,72.02
2022-07-26T02:15:12.293Z,71.89
2022-07-26T02:20:16.993Z,72.07
2022-07-26T02:25:21.271Z,71.89
2022-07-26T02:30:24.129Z,71.96
2022-07-26T02:35:27.246Z,71.99
2022-07-26T02:40:31.895Z,71.86
2022-07-26T02:45:35.104Z,71.76
2022-07-26T02:50:38.053Z,71.66
2022-07-26T02:55:42.163Z,71.91
2022-07-26T03:00:45.149Z,71.69
2022-07-26T03:05:47.815Z,71.86
2022-07-26T03:10:52.022Z,71.87
2022-07-26T03:15:54.924Z,71.70
2022-07-26T03:20:57.806Z,71.56
2022-07-26T03:26:02.923Z,71.47
2022-07-26T03:31:05.706Z,71.20
2022-07-26T03:36:11.788Z,70.82
2022-07-26T03:41:19.487Z,70.70
2022-07-26T03:46:22.312Z,70.31
2022-07-26T03:51:25.265Z,70.02
2022-07-26T03:56:35.358Z,69.53
2022-07-26T04:01:41.690Z,69.35
2022-07-26T04:06:45.995Z,68.70
2022-07-26T04:11:50.127Z,68.42
2022-07-26T04:16:52.970Z,67.71
2022-07-26T04:21:55.674Z,67.29
2022-07-26T04:27:00.025Z,66.86
2022-07-26T04:32:02.743Z,66.72
2022-07-26T04:37:05.456Z,66.63
2022-07-26T04:42:10.055Z,66.40
2022-07-26T04:47:12.837Z,66.89
2022-07-26T04:52:16.905Z,66.59
2022-07-26T04:57:21.193Z,66.51
2022-07-26T05:02:24.866Z,66.14
2022-07-26T05:07:27.897Z,66.13
2022-07-26T05:12:32.036Z,65.85
2022-07-26T05:17:35.491Z,65.90
2022-07-26T05:22:39.326Z,65.53
2022-07-26T05:27:43.485Z,65.67
2022-07-26T05:32:46.276Z,65.34
2022-07-26T05:37:49.312Z,65.51
2022-07-26T05:42:53.535Z,65.81
2022-07-26T05:47:56.357Z,65.81
2022-07-26T05:52:59.099Z,66.13
2022-07-26T05:58:03.329Z,65.68
2022-07-26T06:03:22.159Z,65.41
2022-07-26T06:08:26.336Z,65.65
2022-07-26T06:13:30.468Z,65.54
2022-07-26T06:18:33.232Z,65.14
2022-07-26T06:23:35.980Z,64.47
2022-07-26T06:28:39.946Z,63.92
2022-07-26T06:33:42.618Z,63.81
2022-07-26T06:38:45.266Z,64.80
2022-07-26T06:43:53.009Z,65.41
2022-07-26T06:48:57.070Z,65.75
2022-07-26T06:54:00.966Z,65.95
2022-07-26T06:59:09.249Z,67.43
2022-07-26T07:04:12.535Z,67.48
2022-07-26T07:09:15.270Z,66.13
2022-07-26T07:14:20.032Z,67.08
2022-07-26T07:19:23.064Z,67.26
2022-07-26T07:24:25.720Z,66.79
2022-07-26T07:29:29.902Z,65.58
2022-07-26T07:34:32.906Z,64.62
2022-07-26T07:39:38.694Z,66.14
2022-07-26T07:44:42.915Z,64.70
2022-07-26T07:49:45.570Z,65.79
2022-07-26T07:54:48.355Z,64.30
2022-07-26T07:59:52.558Z,66.19
2022-07-26T08:04:55.637Z,65.66
2022-07-26T08:10:02.119Z,65.00
2022-07-26T08:15:08.366Z,64.21
2022-07-26T08:20:15.921Z,63.25
2022-07-26T08:25:19.309Z,64.38
2022-07-26T08:30:23.641Z,63.91
2022-07-26T08:35:26.707Z,63.80
2022-07-26T08:40:29.686Z,63.73
2022-07-26T08:45:33.762Z,64.49
2022-07-26T08:50:37.032Z,64.82
2022-07-26T09:01:08.698Z,64.89
2022-07-26T09:06:16.900Z,64.64
2022-07-26T09:11:30.994Z,64.71
2022-07-26T09:16:39.617Z,64.62
2022-07-26T09:21:43.260Z,64.74
2022-07-26T09:26:56.432Z,64.52
2022-07-26T09:32:17.139Z,64.50
2022-07-26T09:37:20.488Z,64.24
2022-07-26T09:42:29.532Z,64.34
2022-07-26T09:47:41.167Z,63.91
2022-07-26T09:53:03.161Z,64.03
2022-07-26T09:58:06.479Z,63.63
2022-07-26T10:03:10.967Z,63.64
2022-07-26T10:08:14.456Z,63.46
2022-07-26T10:13:18.039Z,63.27
2022-07-26T10:18:55.782Z,63.23
2022-07-26T10:23:59.854Z,63.05
2022-07-26T10:29:28.595Z,63.22
2022-07-26T10:34:36.931Z,63.20
2022-07-26T10:39:40.402Z,63.51
2022-07-26T10:44:45.108Z,63.30
2022-07-26T10:49:57.391Z,63.18
2022-07-26T10:55:09.862Z,62.86
2022-07-26T11:00:16.481Z,62.76
2022-07-26T11:05:21.680Z,62.49
2022-07-26T11:10:30.085Z,62.40
2022-07-26T11:15:33.435Z,62.38
2022-07-26T11:20:37.753Z,62.45
2022-07-26T11:25:40.734Z,62.33
2022-07-26T11:30:57.240Z,61.89
2022-07-26T11:36:01.246Z,61.37
2022-07-26T11:41:03.951Z,60.20
2022-07-26T11:46:07.015Z,59.73
2022-07-26T11:51:12.514Z,59.40
2022-07-26T11:56:17.758Z,59.20
2022-07-26T12:01:22.628Z,58.56
2022-07-26T12:06:28.972Z,59.58
2022-07-26T12:11:41.758Z,59.93
2022-07-26T12:16:46.294Z,60.17
2022-07-26T12:21:52.755Z,59.61
2022-07-26T12:27:06.214Z,58.75
2022-07-26T12:32:12.648Z,58.08
2022-07-26T12:37:18.582Z,58.04
2022-07-26T12:42:22.656Z,58.05
2022-07-26T12:47:25.617Z,57.65
2022-07-26T12:52:30.157Z,56.49
2022-07-26T12:57:33.515Z,56.36
2022-07-26T13:02:40.704Z,56.56
2022-07-26T13:07:44.762Z,56.85
2022-07-26T13:12:47.408Z,55.89
2022-07-26T13:17:51.624Z,51.28
2022-07-26T13:22:55.720Z,51.05
2022-07-26T13:27:58.462Z,52.69
2022-07-26T13:33:01.301Z,53.22
2022-07-26T13:38:05.352Z,52.87
2022-07-26T13:43:08.113Z,52.77
2022-07-26T13:48:11.000Z,52.78
2022-07-26T13:53:15.643Z,53.15
2022-07-26T13:58:21.372Z,55.66
2022-07-26T14:03:24.147Z,57.46
2022-07-26T14:08:28.224Z,57.77
2022-07-26T14:13:31.157Z,59.08
2022-07-26T14:18:34.152Z,58.68
2022-07-26T14:23:38.208Z,59.01
2022-07-26T14:28:40.974Z,59.72
2022-07-26T14:33:44.419Z,58.78
2022-07-26T14:38:50.005Z,59.67
2022-07-26T14:43:55.663Z,59.52
2022-07-26T14:48:58.877Z,59.28
2022-07-26T14:54:03.020Z,59.50
2022-07-26T14:59:05.995Z,59.62
2022-07-26T15:04:09.038Z,59.09
2022-07-26T15:09:13.330Z,59.32
2022-07-26T15:14:16.060Z,59.11
2022-07-26T15:19:22.305Z,58.46
2022-07-26T15:24:30.670Z,56.65
2022-07-26T15:29:33.534Z,57.25
2022-07-26T15:34:36.158Z,57.04
2022-07-26T15:39:40.124Z,58.07
2022-07-26T15:44:42.837Z,58.58
2022-07-26T15:49:46.776Z,58.08
2022-07-26T15:54:52.674Z,58.65
2022-07-26T15:59:55.378Z,59.44
2022-07-26T16:04:58.044Z,59.09
2022-07-26T16:10:02.470Z,56.30
2022-07-26T16:15:05.939Z,54.92
2022-07-26T16:20:09.658Z,55.66
2022-07-26T16:25:14.207Z,55.42
2022-07-26T16:30:17.714Z,55.77
2022-07-26T16:35:20.386Z,55.61
2022-07-26T16:40:24.689Z,55.59
2022-07-26T16:45:27.629Z,56.11
2022-07-26T16:50:30.407Z,55.13
2022-07-26T16:55:34.592Z,54.18
2022-07-26T17:00:37.366Z,54.46
2022-07-26T17:05:40.104Z,54.45
2022-07-26T17:10:44.838Z,55.57
2022-07-26T17:15:47.714Z,53.51
2022-07-26T17:20:50.562Z,54.25
2022-07-26T17:25:54.564Z,54.03
2022-07-26T17:30:57.453Z,54.34
2022-07-26T17:36:03.349Z,54.35
2022-07-26T17:41:08.586Z,54.49
2022-07-26T17:46:11.610Z,54.78
2022-07-26T17:51:14.763Z,54.58
2022-07-26T17:56:19.683Z,55.02
2022-07-26T18:01:23.483Z,54.72
2022-07-26T18:06:26.580Z,55.21
2022-07-26T18:11:33.675Z,55.20
2022-07-26T18:16:37.498Z,55.09
2022-07-26T18:21:40.228Z,54.63
2022-07-26T18:26:44.882Z,54.90
2022-07-26T18:31:47.944Z,54.97
2022-07-26T18:36:50.930Z,55.14
2022-07-26T18:41:54.916Z,55.69
2022-07-26T18:46:57.784Z,55.24
2022-07-26T18:52:07.490Z,55.51
2022-07-26T18:57:12.968Z,54.96
2022-07-26T19:02:15.685Z,55.26
2022-07-26T19:07:18.501Z,54.88
2022-07-26T19:12:22.533Z,55.23
2022-07-26T19:17:25.429Z,54.59
2022-07-26T19:22:29.128Z,54.75
2022-07-26T19:27:33.137Z,54.76
2022-07-26T19:32:36.010Z,54.51
2022-07-26T19:37:38.743Z,54.56
2022-07-26T19:42:42.977Z,54.53
2022-07-26T19:47:46.506Z,54.37
2022-07-26T19:52:49.245Z,54.52
2022-07-26T19:57:53.278Z,54.37
2022-07-26T20:02:56.005Z,54.51
2022-07-26T20:07:59.098Z,54.64
2022-07-26T20:13:03.410Z,54.97
2022-07-26T20:18:06.339Z,55.00
2022-07-26T20:23:10.878Z,55.37
2022-07-26T20:28:14.900Z,55.83
2022-07-26T20:33:17.648Z,56.35
2022-07-26T20:38:20.442Z,55.88
2022-07-26T20:43:24.446Z,56.03
2022-07-26T20:48:29.620Z,56.17
2022-07-26T20:53:32.293Z,55.89
2022-07-26T20:58:36.411Z,55.60
2022-07-26T21:03:39.158Z,55.57
2022-07-26T21:08:41.891Z,55.42
2022-07-26T21:13:45.884Z,55.63
2022-07-26T21:18:52.764Z,55.29
2022-07-26T21:23:55.952Z,55.14
2022-07-26T21:29:00.230Z,55.67
2022-07-26T21:34:03.224Z,55.15
2022-07-26T21:39:06.556Z,56.05
2022-07-26T21:44:10.605Z,56.09
2022-07-26T21:49:13.798Z,56.24
2022-07-26T21:54:16.962Z,56.42
2022-07-26T21:59:24.470Z,56.55
2022-07-26T22:04:27.123Z,56.72
2022-07-26T22:09:29.781Z,56.41
2022-07-26T22:14:33.821Z,56.51
2022-07-26T22:19:36.541Z,57.47
2022-07-26T22:24:39.219Z,56.91
2022-07-26T22:29:43.295Z,56.78
2022-07-26T22:34:46.209Z,56.54
2022-07-26T22:39:48.900Z,56.44
2022-07-26T22:44:52.890Z,56.69
2022-07-26T22:49:55.689Z,56.47
2022-07-26T22:54:58.542Z,56.57
2022-07-26T23:00:02.674Z,56.53
2022-07-26T23:05:06.436Z,56.60
2022-07-26T23:10:11.361Z,56.54
2022-07-26T23:15:15.497Z,56.64
2022-07-26T23:20:18.209Z,56.55
2022-07-26T23:25:21.923Z,56.39
2022-07-26T23:30:26.231Z,56.55
2022-07-26T23:35:29.042Z,56.53
2022-07-26T23:40:31.898Z,56.53
2022-07-26T23:45:35.914Z,56.56
2022-07-26T23:50:38.760Z,56.60
2022-07-26T23:55:41.454Z,56.48
